Main page
METAR-TAF:

METAR-TAF

Airports :

Nelson Lagoon Airport

Nelson Lagoon, Alaska, United States

latitude: 56-00-27N, longitude: 161-09-37W, elevation: 13 ft

Current weather observation

The report was made 7 minutes ago, at 04:56 UTC
Wind 22 mph from the South
Temperature 34°F
Humidity 86%
Pressure 29.79 in. Hg
Visibility: 10 miles
Scattered clouds at a height of 2200 ft
Broken clouds at a height of 7500 ft
Overcast at a height of 9000 ft

METAR: PAOU 070456Z AUTO 19019KT 10SM SCT022 BKN075 OVC090 01/M01 A2979 RMK AO2 SLPNO T00111006 FZRANO PNO $

Time: 20:03 (05:03 UTC)


TAF: missing

Weather observations and forecasts of more than 4000 airports (METAR and TAF reports).

The available stations are represented by yellow and red dots on the map.

Hover mouse over dot to see the name of the station.

Then click to see weather observations and forecasts.

To change the map : click on the green buttons with a black cross to zoom in, on the green button with a dash to zoom out, or on the green arrows for adjacent maps.


METAR-TAF: